Time;durP1;ratioP1;P1;durP2;ratioP2;P2;SDS_P1;SDS_P2;PMS_P1;PMS_P2;Temp;Humidity;BMP_temperature;BMP_pressure;BME280_temperature;BME280_humidity;BME280_pressure;Samples;Min_cycle;Max_cycle;Signal;HPM_P1;HPM_P2
2023/06/25 00:00:47;;;;;;;7.00;4.30;;;;;;;27.48;46.25;100232.31;107874;1288;22000;-73
2023/06/25 00:03:13;;;;;;;11.30;4.80;;;;;;;27.43;46.58;100230.33;107964;1289;22460;-73
2023/06/25 00:05:42;;;;;;;10.90;4.90;;;;;;;27.37;47.01;100224.89;108063;1289;21990;-61
2023/06/25 00:08:08;;;;;;;11.20;5.10;;;;;;;27.33;47.37;100222.00;107983;1289;21992;-73
2023/06/25 00:10:34;;;;;;;12.30;5.20;;;;;;;27.33;47.72;100221.65;108069;1287;22009;-60
2023/06/25 00:13:00;;;;;;;7.80;5.30;;;;;;;27.34;47.88;100219.97;108053;1289;21995;-73
2023/06/25 00:15:27;;;;;;;7.20;4.90;;;;;;;27.35;48.17;100221.48;108002;1284;21990;-62
2023/06/25 00:17:53;;;;;;;9.60;5.00;;;;;;;27.34;48.68;100218.84;107971;1278;21987;-73
2023/06/25 00:20:19;;;;;;;9.60;5.20;;;;;;;27.31;49.08;100218.94;107995;1289;21991;-73
2023/06/25 00:22:45;;;;;;;8.40;5.40;;;;;;;27.28;49.58;100213.04;108063;1287;22021;-74
2023/06/25 00:25:14;;;;;;;11.50;5.30;;;;;;;27.25;49.81;100209.27;108050;1281;21990;-60
2023/06/25 00:27:40;;;;;;;10.10;5.80;;;;;;;27.26;50.11;100209.45;108070;1289;22069;-61
2023/06/25 00:30:08;;;;;;;10.80;5.70;;;;;;;27.27;50.58;100208.84;108024;1288;22958;-73
2023/06/25 00:32:34;;;;;;;10.50;6.10;;;;;;;27.28;50.78;100208.51;108120;1277;23641;-61
2023/06/25 00:35:01;;;;;;;8.30;5.80;;;;;;;27.30;51.65;100210.34;108092;1288;21992;-61
2023/06/25 00:37:27;;;;;;;10.30;5.30;;;;;;;27.31;52.03;100211.58;108120;1288;22000;-73
2023/06/25 00:39:53;;;;;;;9.70;6.40;;;;;;;27.31;52.29;100213.66;108007;1281;22008;-60
2023/06/25 00:42:19;;;;;;;11.40;6.50;;;;;;;27.34;51.96;100214.03;108009;1289;21997;-60
2023/06/25 00:44:44;;;;;;;10.90;6.10;;;;;;;27.37;52.25;100213.56;108012;1289;22369;-72
2023/06/25 00:47:12;;;;;;;8.70;6.00;;;;;;;27.40;52.16;100214.04;108061;1289;21999;-73
2023/06/25 00:49:45;;;;;;;11.40;6.60;;;;;;;27.43;52.35;100214.83;108011;1289;22003;-73
2023/06/25 00:52:12;;;;;;;9.00;6.50;;;;;;;27.45;52.62;100213.53;108034;1289;21996;-60
2023/06/25 00:54:39;;;;;;;11.30;6.00;;;;;;;27.48;52.63;100218.77;107995;1287;22023;-74
2023/06/25 00:57:08;;;;;;;16.10;6.60;;;;;;;27.51;52.54;100214.23;108054;1284;21990;-74
2023/06/25 00:59:35;;;;;;;10.50;6.50;;;;;;;27.53;52.50;100210.44;108117;1281;21977;-74
2023/06/25 01:02:11;;;;;;;7.90;5.40;;;;;;;27.55;52.82;100209.70;108126;1284;21993;-74
2023/06/25 01:04:41;;;;;;;11.80;7.40;;;;;;;27.55;52.73;100207.34;108080;1289;22001;-60
2023/06/25 01:07:11;;;;;;;9.70;6.80;;;;;;;27.55;52.86;100206.43;108017;1286;22001;-74
2023/06/25 01:09:36;;;;;;;12.10;6.20;;;;;;;27.54;52.67;100205.41;107881;1284;21990;-75
2023/06/25 01:12:03;;;;;;;14.40;6.40;;;;;;;27.54;52.74;100205.60;107818;1289;21992;-60
2023/06/25 01:14:32;;;;;;;10.30;6.10;;;;;;;27.53;52.57;100204.96;108006;1287;21994;-61
2023/06/25 01:16:58;;;;;;;12.20;7.00;;;;;;;27.53;52.52;100202.13;108101;1288;22203;-67
2023/06/25 01:19:29;;;;;;;11.10;6.40;;;;;;;27.51;52.58;100202.98;107978;1288;21998;-74
2023/06/25 01:22:01;;;;;;;11.40;6.90;;;;;;;27.50;52.71;100208.13;108083;1288;21998;-74
2023/06/25 01:24:27;;;;;;;9.70;6.60;;;;;;;27.47;52.99;100211.08;108006;1284;23768;-74
2023/06/25 01:26:57;;;;;;;9.10;5.60;;;;;;;27.41;52.98;100204.69;108025;1285;24373;-61
2023/06/25 01:29:22;;;;;;;8.40;6.10;;;;;;;27.38;53.13;100202.46;107986;1289;22000;-74
2023/06/25 01:31:51;;;;;;;11.50;6.40;;;;;;;27.35;53.08;100207.02;108017;1287;22047;-61
2023/06/25 01:34:23;;;;;;;9.90;5.70;;;;;;;27.33;53.20;100207.26;107974;1289;21997;-73
2023/06/25 01:36:52;;;;;;;9.10;6.40;;;;;;;27.28;53.31;100207.80;108000;1287;21994;-61
2023/06/25 01:39:19;;;;;;;10.00;6.20;;;;;;;27.25;53.53;100209.87;108029;1279;21986;-61
2023/06/25 01:41:44;;;;;;;8.60;6.20;;;;;;;27.20;53.70;100212.27;108004;1285;21995;-73
2023/06/25 01:44:13;;;;;;;11.50;6.30;;;;;;;27.14;53.82;100210.95;108038;1289;22046;-61
2023/06/25 01:46:38;;;;;;;11.60;6.30;;;;;;;27.09;54.14;100213.77;108047;1277;21998;-74
2023/06/25 01:49:04;;;;;;;10.90;6.50;;;;;;;27.04;54.64;100215.21;108008;1289;21992;-74
2023/06/25 01:51:31;;;;;;;9.70;6.10;;;;;;;26.98;54.63;100219.51;107980;1289;21995;-61
2023/06/25 01:53:58;;;;;;;13.80;6.50;;;;;;;26.95;54.82;100218.36;108017;1289;21994;-74
2023/06/25 01:56:24;;;;;;;12.80;6.20;;;;;;;26.93;54.84;100222.48;108069;1289;22033;-61
2023/06/25 01:58:52;;;;;;;7.70;5.60;;;;;;;26.93;54.79;100217.77;108003;1288;21995;-74
2023/06/25 02:01:22;;;;;;;12.70;6.30;;;;;;;26.94;54.71;100215.17;108029;1287;22005;-60
2023/06/25 02:03:48;;;;;;;9.80;6.00;;;;;;;26.96;54.96;100214.84;108039;1286;22458;-61
2023/06/25 02:06:14;;;;;;;11.70;6.60;;;;;;;26.96;55.22;100212.70;107998;1289;22001;-73
2023/06/25 02:08:40;;;;;;;8.50;5.70;;;;;;;26.96;55.31;100209.27;107973;1281;21994;-73
2023/06/25 02:11:09;;;;;;;9.30;6.40;;;;;;;26.96;55.36;100209.96;108003;1289;22853;-72
2023/06/25 02:13:35;;;;;;;9.40;5.50;;;;;;;26.97;55.21;100213.48;108068;1289;22459;-74
2023/06/25 02:16:01;;;;;;;10.10;6.40;;;;;;;26.99;55.33;100215.67;107968;1289;22455;-74
2023/06/25 02:18:27;;;;;;;11.40;6.40;;;;;;;27.01;55.35;100217.11;108052;1289;21961;-62
2023/06/25 02:20:54;;;;;;;9.30;5.80;;;;;;;27.00;55.80;100218.41;108035;1288;21991;-62
2023/06/25 02:23:19;;;;;;;12.00;6.30;;;;;;;26.98;55.82;100217.91;108073;1289;21977;-75
2023/06/25 02:25:46;;;;;;;11.00;6.20;;;;;;;26.96;56.36;100220.38;108010;1287;22000;-74
2023/06/25 02:28:12;;;;;;;10.70;6.30;;;;;;;26.92;56.36;100219.81;107995;1286;21996;-74
2023/06/25 02:30:38;;;;;;;14.90;6.80;;;;;;;26.91;56.54;100219.63;108032;1280;22026;-76
2023/06/25 02:33:04;;;;;;;12.40;6.50;;;;;;;26.89;56.55;100220.27;107986;1286;23622;-61
2023/06/25 02:35:29;;;;;;;14.70;6.40;;;;;;;26.90;56.62;100220.04;107986;1283;22166;-76
2023/06/25 02:37:55;;;;;;;12.60;6.60;;;;;;;26.91;56.95;100225.52;107990;1288;21989;-61
2023/06/25 02:40:23;;;;;;;12.30;6.10;;;;;;;26.91;57.36;100230.75;108019;1288;22070;-63
2023/06/25 02:42:49;;;;;;;11.80;6.70;;;;;;;26.90;57.61;100228.66;108006;1289;21992;-75
2023/06/25 02:45:15;;;;;;;13.10;6.50;;;;;;;26.89;57.66;100221.92;108020;1288;21989;-74
2023/06/25 02:47:40;;;;;;;13.80;6.50;;;;;;;26.89;57.78;100222.29;107991;1287;21993;-62
2023/06/25 02:50:07;;;;;;;13.20;7.10;;;;;;;26.89;57.94;100226.23;107992;1289;22004;-74
2023/06/25 02:52:32;;;;;;;14.40;7.20;;;;;;;26.90;58.04;100224.39;107997;1286;21993;-62
2023/06/25 02:54:58;;;;;;;9.40;5.80;;;;;;;26.91;58.11;100222.45;108013;1280;21999;-72
2023/06/25 02:57:28;;;;;;;8.80;5.80;;;;;;;26.92;58.57;100225.23;108001;1286;22004;-75
2023/06/25 02:59:54;;;;;;;9.10;5.60;;;;;;;26.92;58.66;100224.18;107985;1287;21993;-61
2023/06/25 03:02:19;;;;;;;12.80;5.80;;;;;;;26.91;59.14;100224.40;107967;1289;22002;-61
2023/06/25 03:04:45;;;;;;;12.30;5.40;;;;;;;26.89;59.15;100225.71;108003;1288;21994;-62
2023/06/25 03:07:10;;;;;;;8.40;5.90;;;;;;;26.89;59.59;100225.38;108041;1289;21998;-61
2023/06/25 03:09:38;;;;;;;10.10;5.50;;;;;;;26.88;59.76;100221.45;108021;1288;21999;-61
2023/06/25 03:12:04;;;;;;;14.30;6.20;;;;;;;26.89;59.91;100222.64;107871;1288;22000;-61
2023/06/25 03:14:30;;;;;;;12.60;5.90;;;;;;;26.92;60.00;100224.03;108028;1284;21979;-75
2023/06/25 03:16:56;;;;;;;10.70;5.60;;;;;;;26.97;59.70;100222.86;108050;1288;21999;-74
2023/06/25 03:19:22;;;;;;;15.00;6.20;;;;;;;27.04;59.87;100220.84;108029;1288;21988;-60
2023/06/25 03:21:47;;;;;;;17.60;5.90;;;;;;;27.11;59.93;100221.13;107986;1289;21995;-73
2023/06/25 03:24:13;;;;;;;10.40;6.70;;;;;;;27.18;59.89;100212.79;108019;1287;22000;-72
2023/06/25 03:26:39;;;;;;;14.30;5.50;;;;;;;27.24;59.84;100207.45;107833;1289;21991;-63
2023/06/25 03:29:05;;;;;;;11.70;5.80;;;;;;;27.30;59.85;100206.22;108013;1284;22779;-61
2023/06/25 03:31:30;;;;;;;14.60;6.50;;;;;;;27.36;60.00;100204.13;108019;1289;22031;-59
2023/06/25 03:33:56;;;;;;;10.00;5.60;;;;;;;27.42;60.12;100201.73;107995;1289;22027;-59
2023/06/25 03:36:22;;;;;;;12.70;6.30;;;;;;;27.48;60.19;100200.00;107980;1289;21994;-61
2023/06/25 03:38:47;;;;;;;11.20;5.60;;;;;;;27.56;60.31;100202.94;108050;1287;21994;-72
2023/06/25 03:41:13;;;;;;;10.90;6.50;;;;;;;27.62;60.53;100208.56;108038;1289;21989;-61
2023/06/25 03:43:39;;;;;;;12.50;5.50;;;;;;;27.66;60.84;100215.41;108007;1287;21997;-61
2023/06/25 03:46:04;;;;;;;12.90;6.30;;;;;;;27.71;61.10;100209.59;107989;1287;22457;-69
2023/06/25 03:48:30;;;;;;;9.90;6.20;;;;;;;27.79;61.08;100204.56;107979;1287;22012;-70
2023/06/25 03:50:56;;;;;;;11.70;6.40;;;;;;;27.86;60.82;100199.26;107834;1280;21987;-61
2023/06/25 03:53:21;;;;;;;9.20;5.00;;;;;;;27.94;60.98;100195.83;107998;1280;21980;-61
2023/06/25 03:55:47;;;;;;;10.60;5.60;;;;;;;28.04;61.17;100192.21;108028;1289;22002;-71
2023/06/25 03:58:12;;;;;;;11.40;6.10;;;;;;;28.14;61.16;100193.02;107950;1278;22019;-71
2023/06/25 04:00:39;;;;;;;8.30;5.20;;;;;;;28.25;61.15;100192.79;108037;1280;22061;-61
2023/06/25 04:03:04;;;;;;;10.40;5.50;;;;;;;28.36;60.87;100191.08;107849;1289;22443;-61
2023/06/25 04:05:30;;;;;;;7.70;5.20;;;;;;;28.45;60.69;100193.46;107997;1281;21992;-71
2023/06/25 04:07:56;;;;;;;8.70;4.70;;;;;;;28.52;60.64;100193.79;107973;1289;21992;-61
2023/06/25 04:10:22;;;;;;;9.80;5.10;;;;;;;28.58;60.23;100197.93;107992;1281;22002;-62
2023/06/25 04:12:47;;;;;;;8.80;5.20;;;;;;;28.66;60.22;100195.91;108001;1289;22029;-61
2023/06/25 04:15:13;;;;;;;7.70;5.20;;;;;;;28.73;60.22;100196.75;107978;1280;21992;-61
2023/06/25 04:17:40;;;;;;;9.00;5.50;;;;;;;28.81;60.20;100193.33;107990;1289;22004;-71
2023/06/25 04:20:07;;;;;;;11.30;5.40;;;;;;;28.90;60.12;100192.70;107988;1278;21994;-71
2023/06/25 04:22:33;;;;;;;9.80;5.40;;;;;;;28.99;60.02;100192.44;108046;1280;21998;-62
2023/06/25 04:24:59;;;;;;;8.80;5.10;;;;;;;29.06;60.14;100194.49;107975;1289;22000;-69
2023/06/25 04:27:24;;;;;;;9.10;5.20;;;;;;;29.15;60.34;100193.66;107979;1288;21988;-70
2023/06/25 04:29:50;;;;;;;8.40;5.50;;;;;;;29.27;60.02;100194.33;107980;1283;22044;-62
2023/06/25 04:32:16;;;;;;;10.00;5.20;;;;;;;29.40;59.93;100190.06;108053;1289;22021;-61
2023/06/25 04:34:42;;;;;;;6.80;4.80;;;;;;;29.51;59.71;100184.86;108015;1287;22001;-70
2023/06/25 04:37:07;;;;;;;9.20;5.10;;;;;;;29.63;59.52;100184.25;108212;1284;22453;-61
2023/06/25 04:39:33;;;;;;;6.40;4.70;;;;;;;29.73;59.19;100183.60;108100;1283;21996;-62
2023/06/25 04:41:59;;;;;;;14.00;5.90;;;;;;;29.85;58.88;100189.75;108100;1288;21997;-61
2023/06/25 04:44:25;;;;;;;7.30;4.60;;;;;;;29.94;58.98;100187.62;108078;1283;21992;-70
2023/06/25 04:46:52;;;;;;;6.30;4.60;;;;;;;30.07;59.19;100187.96;107955;1288;21992;-62
2023/06/25 04:49:17;;;;;;;7.30;4.30;;;;;;;30.23;59.20;100186.45;107991;1288;21999;-69
2023/06/25 04:51:46;;;;;;;8.40;4.50;;;;;;;30.39;58.68;100188.48;108057;1287;21992;-70
2023/06/25 04:54:12;;;;;;;8.90;4.60;;;;;;;30.51;57.90;100186.93;108047;1288;21989;-63
2023/06/25 04:56:38;;;;;;;7.60;4.20;;;;;;;30.61;57.64;100182.91;108032;1278;21989;-62
2023/06/25 04:59:03;;;;;;;10.30;4.10;;;;;;;30.73;57.53;100180.63;108013;1279;22029;-63
2023/06/25 05:01:29;;;;;;;8.30;4.60;;;;;;;30.82;57.10;100182.09;108086;1283;21989;-62
2023/06/25 05:03:55;;;;;;;7.50;5.00;;;;;;;30.91;56.98;100187.30;108071;1288;21989;-68
2023/06/25 05:06:21;;;;;;;9.60;5.40;;;;;;;31.07;56.63;100190.96;108112;1283;22000;-62
2023/06/25 05:08:47;;;;;;;7.30;4.60;;;;;;;31.21;56.34;100190.65;108092;1274;21992;-71
2023/06/25 05:11:13;;;;;;;7.70;4.90;;;;;;;31.35;55.85;100190.73;108121;1283;21986;-62
2023/06/25 05:13:39;;;;;;;7.70;5.60;;;;;;;31.48;55.55;100192.55;108100;1288;21996;-70
2023/06/25 05:16:04;;;;;;;10.70;6.30;;;;;;;31.54;55.59;100188.91;108095;1286;21957;-70
2023/06/25 05:18:30;;;;;;;11.80;7.40;;;;;;;31.53;56.05;100191.70;108075;1283;22464;-68
2023/06/25 05:20:56;;;;;;;11.80;8.70;;;;;;;31.67;56.49;100190.86;108087;1288;22046;-70
2023/06/25 05:23:24;;;;;;;10.80;7.50;;;;;;;31.91;55.88;100184.75;108087;1274;21992;-71
2023/06/25 05:25:49;;;;;;;17.30;8.30;;;;;;;32.02;55.45;100183.36;108089;1283;21989;-70
2023/06/25 05:28:15;;;;;;;12.10;8.50;;;;;;;32.09;55.12;100180.77;108103;1288;22025;-69
2023/06/25 05:30:40;;;;;;;10.50;7.30;;;;;;;32.15;54.88;100184.91;107989;1288;22028;-64
2023/06/25 05:33:06;;;;;;;11.60;8.80;;;;;;;32.26;55.05;100187.73;108079;1288;21992;-70
2023/06/25 05:35:32;;;;;;;13.90;9.70;;;;;;;32.37;54.74;100188.34;108114;1288;21993;-63
2023/06/25 05:37:58;;;;;;;11.70;8.70;;;;;;;32.48;54.46;100190.46;108090;1278;22007;-63
2023/06/25 05:40:25;;;;;;;13.00;8.50;;;;;;;32.56;54.50;100189.64;108113;1288;23644;-62
2023/06/25 05:42:50;;;;;;;11.10;8.50;;;;;;;32.67;54.37;100190.53;108132;1284;21989;-70
2023/06/25 05:45:16;;;;;;;10.40;7.60;;;;;;;32.77;54.01;100191.63;108066;1288;21989;-62
2023/06/25 05:47:43;;;;;;;12.80;8.20;;;;;;;32.86;53.93;100195.42;108094;1288;22001;-70
2023/06/25 05:50:10;;;;;;;15.10;8.70;;;;;;;33.01;53.94;100196.31;107934;1289;21992;-69
2023/06/25 05:52:35;;;;;;;11.60;7.80;;;;;;;33.13;53.76;100202.09;108021;1280;21990;-69
2023/06/25 05:55:01;;;;;;;13.80;7.90;;;;;;;33.23;53.31;100203.25;108046;1278;22457;-69
2023/06/25 05:57:27;;;;;;;10.30;7.90;;;;;;;33.35;53.42;100201.35;107977;1289;21989;-61
2023/06/25 05:59:53;;;;;;;9.70;8.20;;;;;;;33.48;52.90;100211.95;108014;1287;21992;-69
2023/06/25 06:02:18;;;;;;;13.40;7.80;;;;;;;33.58;52.65;100208.41;108056;1289;21992;-69
2023/06/25 06:04:45;;;;;;;12.10;8.30;;;;;;;33.68;52.44;100208.39;107886;1289;22003;-69
2023/06/25 06:07:11;;;;;;;12.90;9.00;;;;;;;33.70;51.80;100215.82;108057;1287;22737;-69
2023/06/25 06:09:37;;;;;;;11.50;8.30;;;;;;;33.68;51.79;100214.95;107990;1280;22055;-69
2023/06/25 06:12:03;;;;;;;9.00;7.70;;;;;;;33.72;52.01;100211.80;107980;1285;21992;-63
2023/06/25 06:14:33;;;;;;;13.10;8.40;;;;;;;33.85;52.12;100205.45;109999;1280;21968;-67
2023/06/25 06:16:59;;;;;;;14.30;7.70;;;;;;;34.01;52.20;100200.48;109994;1286;22356;-67
2023/06/25 06:19:24;;;;;;;14.50;9.10;;;;;;;34.14;51.69;100205.52;109979;1284;21934;-69
2023/06/25 06:21:50;;;;;;;10.10;8.80;;;;;;;34.25;51.52;100207.23;108113;1284;22025;-61
2023/06/25 06:24:16;;;;;;;14.30;8.90;;;;;;;34.35;51.19;100202.66;108063;1287;21987;-67
2023/06/25 06:26:42;;;;;;;9.80;8.30;;;;;;;34.48;50.92;100206.34;108036;1289;21989;-71
2023/06/25 06:29:09;;;;;;;13.00;9.20;;;;;;;34.67;50.69;100210.06;108041;1288;23742;-62
2023/06/25 06:31:37;;;;;;;14.50;8.60;;;;;;;34.81;50.33;100209.44;107939;1281;21999;-61
2023/06/25 06:34:03;;;;;;;12.80;8.40;;;;;;;34.95;50.01;100206.55;107979;1284;22118;-68
2023/06/25 06:36:29;;;;;;;10.50;8.20;;;;;;;35.10;50.08;100203.39;107988;1279;21989;-61
2023/06/25 06:38:54;;;;;;;11.60;8.20;;;;;;;35.22;49.23;100203.70;107950;1278;21989;-61
2023/06/25 06:41:20;;;;;;;13.40;8.40;;;;;;;35.35;49.02;100206.89;107982;1288;21999;-61
2023/06/25 06:43:46;;;;;;;11.10;8.30;;;;;;;35.43;48.49;100201.20;108034;1288;22005;-69
2023/06/25 06:46:12;;;;;;;12.40;7.50;;;;;;;35.53;48.18;100196.78;108064;1284;21995;-68
2023/06/25 06:48:37;;;;;;;14.80;8.40;;;;;;;35.68;47.44;100196.92;108082;1278;21994;-66
2023/06/25 06:51:03;;;;;;;13.30;8.70;;;;;;;35.85;47.34;100199.45;108070;1283;22003;-61
2023/06/25 06:53:29;;;;;;;12.00;9.40;;;;;;;35.92;45.93;100200.32;108074;1287;21990;-68
2023/06/25 06:55:54;;;;;;;10.60;8.60;;;;;;;35.97;46.44;100199.61;108100;1277;21992;-68
2023/06/25 06:58:21;;;;;;;13.30;9.20;;;;;;;36.08;46.13;100199.73;108126;1288;21989;-67
2023/06/25 07:00:46;;;;;;;11.40;8.90;;;;;;;36.17;45.19;100201.46;108059;1281;21987;-69
2023/06/25 07:03:12;;;;;;;15.60;8.80;;;;;;;36.23;44.53;100201.74;108066;1288;21996;-68
2023/06/25 07:05:38;;;;;;;11.70;7.90;;;;;;;36.28;43.92;100201.86;108141;1287;22001;-61
2023/06/25 07:08:05;;;;;;;12.30;8.30;;;;;;;36.31;43.25;100198.35;108063;1288;21985;-68
2023/06/25 07:10:31;;;;;;;11.90;8.80;;;;;;;36.29;42.16;100199.38;108080;1284;21992;-68
2023/06/25 07:12:57;;;;;;;15.40;9.10;;;;;;;36.28;43.05;100193.77;108046;1283;21993;-69
2023/06/25 07:15:22;;;;;;;10.80;8.10;;;;;;;36.36;42.85;100187.33;108059;1278;21994;-68
2023/06/25 07:17:48;;;;;;;9.60;8.50;;;;;;;36.45;42.64;100186.26;108073;1288;21992;-68
2023/06/25 07:20:14;;;;;;;11.80;8.40;;;;;;;36.50;42.63;100185.34;108120;1284;21985;-68
2023/06/25 07:22:40;;;;;;;11.70;8.70;;;;;;;36.68;42.85;100186.34;108095;1289;23054;-60
2023/06/25 07:25:09;;;;;;;9.60;8.30;;;;;;;36.85;42.40;100187.80;108042;1286;21986;-61
2023/06/25 07:27:36;;;;;;;;;;;;;;;37.00;42.08;100186.83;108062;1288;22999;-61
2023/06/25 07:30:03;;;;;;;10.80;8.10;;;;;;;37.21;42.09;100183.48;108055;1277;21988;-60
2023/06/25 07:32:29;;;;;;;12.90;8.50;;;;;;;37.40;41.62;100187.34;108086;1278;21989;-66
2023/06/25 07:34:56;;;;;;;10.50;8.90;;;;;;;37.51;41.03;100185.66;107979;1288;162375;-59
2023/06/25 07:37:22;;;;;;;11.30;8.70;;;;;;;37.57;40.45;100182.27;108049;1284;21989;-67
2023/06/25 07:39:48;;;;;;;12.40;8.00;;;;;;;37.60;40.61;100182.09;108081;1285;22024;-67
2023/06/25 07:42:13;;;;;;;14.50;8.20;;;;;;;37.73;40.63;100176.09;108049;1287;21999;-59
2023/06/25 07:44:39;;;;;;;11.70;9.20;;;;;;;37.93;40.19;100167.61;108078;1288;21989;-67
2023/06/25 07:47:05;;;;;;;11.40;8.90;;;;;;;38.05;39.84;100171.44;108049;1277;21991;-67
2023/06/25 07:49:32;;;;;;;11.40;8.90;;;;;;;38.19;39.73;100172.55;108067;1284;21987;-66
2023/06/25 07:51:57;;;;;;;11.50;8.00;;;;;;;38.29;38.82;100170.38;108080;1277;22454;-67
2023/06/25 07:54:23;;;;;;;10.90;8.40;;;;;;;38.37;38.82;100172.27;108095;1288;21999;-67
2023/06/25 07:56:49;;;;;;;14.70;8.50;;;;;;;38.45;37.85;100174.05;108064;1288;21995;-66
2023/06/25 07:59:15;;;;;;;11.10;7.10;;;;;;;38.48;37.35;100166.39;108037;1283;22003;-66
2023/06/25 08:01:40;;;;;;;8.70;7.10;;;;;;;38.52;37.32;100167.38;108053;1284;22937;-68
2023/06/25 08:04:06;;;;;;;11.00;8.50;;;;;;;38.66;37.23;100174.52;108049;1288;22024;-61
2023/06/25 08:06:33;;;;;;;9.70;8.10;;;;;;;38.76;37.49;100172.44;108076;1287;21998;-60
2023/06/25 08:08:59;;;;;;;10.60;8.50;;;;;;;38.84;37.24;100174.94;108121;1283;21996;-60
2023/06/25 08:11:25;;;;;;;10.00;7.00;;;;;;;39.05;37.40;100168.53;108095;1284;21996;-67
2023/06/25 08:13:51;;;;;;;10.20;7.80;;;;;;;39.23;36.58;100168.39;108082;1288;21987;-59
2023/06/25 08:16:16;;;;;;;10.20;8.30;;;;;;;39.29;35.78;100168.67;108119;1280;21988;-67
2023/06/25 08:18:42;;;;;;;10.10;8.20;;;;;;;39.41;35.93;100166.52;108092;1278;21998;-60
2023/06/25 08:21:09;;;;;;;12.30;8.70;;;;;;;39.51;35.33;100167.18;108183;1277;23820;-61
2023/06/25 08:23:35;;;;;;;10.70;8.10;;;;;;;39.58;35.61;100163.64;108127;1288;22017;-64
2023/06/25 08:26:02;;;;;;;11.20;8.50;;;;;;;39.60;35.36;100154.10;108289;1277;21996;-63
2023/06/25 08:28:28;;;;;;;11.80;7.90;;;;;;;39.49;35.49;100159.02;108165;1288;21990;-66
2023/06/25 08:30:54;;;;;;;11.60;8.00;;;;;;;39.46;36.07;100164.39;108125;1278;22038;-64
2023/06/25 08:33:21;;;;;;;9.60;7.40;;;;;;;39.50;35.78;100160.23;108084;1287;22286;-63
2023/06/25 08:35:47;;;;;;;9.40;7.40;;;;;;;39.57;35.38;100155.08;108075;1283;21984;-65
2023/06/25 08:38:17;;;;;;;10.80;7.20;;;;;;;39.55;35.30;100152.39;108111;1280;21996;-69
2023/06/25 08:40:45;;;;;;;15.50;6.80;;;;;;;39.71;35.07;100153.11;108032;1285;21988;-62
2023/06/25 08:43:11;;;;;;;16.20;6.40;;;;;;;39.87;34.06;100153.27;108004;1288;21994;-69
2023/06/25 08:45:36;;;;;;;8.90;7.20;;;;;;;40.03;33.95;100153.92;108020;1280;22043;-69
2023/06/25 08:48:03;;;;;;;8.10;6.40;;;;;;;40.10;33.98;100149.14;108010;1278;21990;-69
2023/06/25 08:50:30;;;;;;;9.20;6.80;;;;;;;40.04;32.89;100148.91;108004;1288;23612;-69
2023/06/25 08:52:56;;;;;;;8.00;6.00;;;;;;;39.93;33.07;100150.04;108010;1275;22453;-69
2023/06/25 08:55:22;;;;;;;13.90;6.50;;;;;;;39.90;33.42;100145.01;107843;1278;22103;-69
2023/06/25 08:57:49;;;;;;;5.90;5.00;;;;;;;40.08;32.78;100146.09;107843;1288;22061;-69
2023/06/25 09:00:16;;;;;;;9.30;5.60;;;;;;;40.42;33.04;100141.63;107986;1286;22023;-68
2023/06/25 09:02:42;;;;;;;7.00;5.70;;;;;;;40.72;32.84;100141.91;108035;1288;23050;-63
2023/06/25 09:05:13;;;;;;;7.20;5.60;;;;;;;40.91;32.80;100137.17;108105;1277;22046;-64
2023/06/25 09:07:43;;;;;;;9.70;5.90;;;;;;;41.04;32.78;100135.54;108013;1288;22039;-64
2023/06/25 09:10:09;;;;;;;9.40;6.20;;;;;;;41.32;32.61;100140.79;108091;1288;21986;-65
2023/06/25 09:12:35;;;;;;;8.20;5.60;;;;;;;41.51;32.66;100134.52;108011;1277;22043;-68
2023/06/25 09:15:01;;;;;;;7.20;5.60;;;;;;;41.55;32.17;100134.81;108047;1288;22457;-63
2023/06/25 09:17:27;;;;;;;7.10;6.10;;;;;;;41.52;31.92;100136.89;107995;1284;22014;-64
2023/06/25 09:19:53;;;;;;;11.10;7.70;;;;;;;41.32;31.34;100137.14;108049;1286;22083;-64
2023/06/25 09:22:18;;;;;;;9.50;6.00;;;;;;;40.99;31.53;100133.33;108016;1277;22040;-63
2023/06/25 09:24:44;;;;;;;9.90;6.60;;;;;;;40.83;32.00;100133.88;107987;1287;21989;-62
2023/06/25 09:27:10;;;;;;;7.90;6.10;;;;;;;40.72;32.00;100136.65;108000;1283;22011;-63
2023/06/25 09:29:36;;;;;;;10.60;6.90;;;;;;;40.62;31.91;100133.14;107995;1280;21991;-68
2023/06/25 09:32:09;;;;;;;9.00;6.30;;;;;;;40.59;31.94;100135.00;108021;1289;22043;-68
2023/06/25 09:34:35;;;;;;;9.70;5.90;;;;;;;40.54;32.17;100136.43;107956;1276;21995;-64
2023/06/25 09:37:04;;;;;;;7.70;5.70;;;;;;;40.56;32.79;100131.84;108047;1286;22001;-68
2023/06/25 09:39:30;;;;;;;7.90;5.40;;;;;;;40.60;31.89;100133.38;108151;1288;21995;-64
2023/06/25 09:41:55;;;;;;;7.10;5.30;;;;;;;40.51;31.65;100132.55;108051;1288;21994;-68
2023/06/25 09:44:21;;;;;;;5.60;4.70;;;;;;;40.47;31.22;100132.36;108124;1288;21989;-62
2023/06/25 09:46:47;;;;;;;5.10;3.90;;;;;;;40.46;30.67;100129.90;108017;1280;21982;-63
2023/06/25 09:49:13;;;;;;;6.10;4.10;;;;;;;40.58;30.72;100128.63;108056;1288;21984;-64
2023/06/25 09:52:14;;;;;;;6.70;4.20;;;;;;;40.74;30.92;100126.02;107823;1288;21990;-68
2023/06/25 09:54:42;;;;;;;7.60;4.70;;;;;;;40.97;31.43;100124.00;107979;1286;21997;-68
2023/06/25 09:57:09;;;;;;;5.90;4.70;;;;;;;41.05;31.55;100117.42;107992;1287;22002;-68
2023/06/25 09:59:38;;;;;;;10.40;5.00;;;;;;;41.23;32.03;100115.95;108007;1278;21987;-63
2023/06/25 10:02:06;;;;;;;8.10;5.50;;;;;;;41.41;30.98;100114.40;107882;1280;22102;-68
2023/06/25 10:04:31;;;;;;;7.00;4.80;;;;;;;41.45;30.88;100111.80;108124;1288;23720;-62
2023/06/25 10:06:57;;;;;;;6.90;5.00;;;;;;;41.47;30.84;100108.98;108029;1288;22027;-63
2023/06/25 10:09:23;;;;;;;8.70;4.70;;;;;;;41.32;30.91;100110.80;107841;1276;22242;-70
2023/06/25 10:11:52;;;;;;;7.00;4.50;;;;;;;41.49;31.05;100106.34;108076;1287;21996;-61
2023/06/25 10:14:17;;;;;;;7.10;5.30;;;;;;;41.85;31.16;100099.82;108025;1283;21994;-69
2023/06/25 10:16:54;;;;;;;9.40;5.10;;;;;;;42.03;30.93;100097.25;108026;1284;21986;-69
2023/06/25 10:19:21;;;;;;;8.80;5.20;;;;;;;42.19;30.72;100089.45;108002;1288;22456;-69
2023/06/25 10:22:10;;;;;;;8.00;5.00;;;;;;;42.25;30.78;100086.99;108082;1276;22030;-69
2023/06/25 10:24:40;;;;;;;6.90;5.20;;;;;;;42.39;31.44;100081.84;107998;1288;22214;-68
2023/06/25 10:27:06;;;;;;;;;;;;;;;42.76;30.98;100082.91;108081;1285;21978;-69
2023/06/25 10:29:40;;;;;;;8.20;5.10;;;;;;;42.77;30.04;100073.98;108073;1286;21985;-69
2023/06/25 10:32:06;;;;;;;9.00;5.10;;;;;;;42.82;29.19;100071.44;108047;1288;21991;-62
2023/06/25 10:34:38;;;;;;;7.10;4.50;;;;;;;42.75;29.27;100069.68;108017;1287;22000;-64
2023/06/25 10:37:05;;;;;;;6.10;4.60;;;;;;;42.65;29.44;100067.59;107965;1289;23644;-69
2023/06/25 10:39:38;;;;;;;6.30;4.70;;;;;;;42.69;29.49;100063.99;107989;1280;22025;-66
2023/06/25 10:42:04;;;;;;;7.60;5.40;;;;;;;42.97;29.48;100061.89;108000;1287;21999;-63
2023/06/25 10:44:31;;;;;;;6.70;4.90;;;;;;;43.13;29.11;100060.91;108006;1284;21986;-68
2023/06/25 10:47:07;;;;;;;6.20;4.90;;;;;;;43.30;28.93;100058.25;107994;1280;21992;-69
2023/06/25 10:49:33;;;;;;;9.40;5.20;;;;;;;43.63;28.92;100054.29;108021;1289;21994;-63
2023/06/25 10:51:59;;;;;;;9.20;5.10;;;;;;;43.69;28.32;100049.44;108008;1289;21990;-65
2023/06/25 10:54:25;;;;;;;14.10;6.50;;;;;;;43.69;28.08;100049.61;108010;1289;23721;-69
2023/06/25 10:57:10;;;;;;;7.70;5.60;;;;;;;43.70;28.65;100052.62;107953;1286;21992;-69
2023/06/25 10:59:37;;;;;;;11.60;5.90;;;;;;;43.93;29.07;100049.49;107994;1283;21992;-69
2023/06/25 11:02:20;;;;;;;9.10;6.00;;;;;;;44.17;28.59;100040.40;108040;1287;21999;-69
2023/06/25 11:04:56;;;;;;;11.20;5.90;;;;;;;44.39;28.09;100038.98;108037;1288;21987;-63
2023/06/25 11:07:23;;;;;;;7.30;5.50;;;;;;;44.26;28.24;100040.61;107977;1282;21991;-67
2023/06/25 11:09:54;;;;;;;11.30;5.80;;;;;;;44.22;28.27;100035.95;108026;1287;22019;-62